Time;durP1;ratioP1;P1;durP2;ratioP2;P2;SDS_P1;SDS_P2;PMS_P1;PMS_P2;Temp;Humidity;BMP_temperature;BMP_pressure;BME280_temperature;BME280_humidity;BME280_pressure;Samples;Min_cycle;Max_cycle;Signal;HPM_P1;HPM_P2
2021/12/04 00:02:07;;;;;;;2.50;2.30;;;16.30;42.60;;;;;;5149499;27;46849;-14
2021/12/04 00:04:36;;;;;;;2.70;2.50;;;16.20;42.60;;;;;;5149995;27;48867;-14
2021/12/04 00:07:02;;;;;;;2.60;2.40;;;16.20;42.60;;;;;;5149651;27;47036;-15
2021/12/04 00:09:30;;;;;;;4.20;2.20;;;16.20;42.70;;;;;;5149732;27;46844;-16
2021/12/04 00:11:59;;;;;;;2.42;2.13;;;16.20;42.70;;;;;;5148830;27;46930;-17
2021/12/04 00:14:26;;;;;;;2.70;2.45;;;16.20;42.80;;;;;;5149136;27;49065;-18
2021/12/04 00:16:53;;;;;;;3.17;2.15;;;16.10;42.80;;;;;;5149664;27;46775;-17
2021/12/04 00:19:19;;;;;;;4.07;2.17;;;16.10;42.90;;;;;;5149400;27;46779;-22
2021/12/04 00:21:47;;;;;;;2.75;2.20;;;16.10;42.90;;;;;;5149546;27;46997;-22
2021/12/04 00:24:14;;;;;;;3.20;2.25;;;16.10;43.00;;;;;;5149512;27;47901;-21
2021/12/04 00:26:41;;;;;;;4.95;2.15;;;16.10;43.10;;;;;;5148882;27;47008;-18
2021/12/04 00:29:08;;;;;;;2.40;2.00;;;16.10;43.00;;;;;;5149237;27;46848;-19
2021/12/04 00:31:35;;;;;;;2.33;2.10;;;16.10;43.10;;;;;;5149393;27;46820;-17
2021/12/04 00:34:01;;;;;;;2.33;2.13;;;16.10;43.10;;;;;;5149203;27;47904;-22
2021/12/04 00:36:34;;;;;;;3.22;2.25;;;16.00;43.10;;;;;;5148899;27;47115;-22
2021/12/04 00:50:05;;;;;;;2.20;2.00;;;15.90;43.30;;;;;;5145976;27;46916;-22
2021/12/04 00:52:32;;;;;;;2.70;2.30;;;15.90;43.40;;;;;;5148605;27;46741;-17
2021/12/04 00:55:00;;;;;;;2.58;2.20;;;15.90;43.40;;;;;;5148941;27;47323;-22
2021/12/04 00:57:27;;;;;;;2.42;2.10;;;15.90;43.40;;;;;;5148853;27;46845;-18
2021/12/04 00:59:53;;;;;;;2.72;2.30;;;15.90;43.40;;;;;;5148903;27;46845;-18
2021/12/04 01:02:20;;;;;;;2.85;2.35;;;15.90;43.50;;;;;;5149006;27;47241;-18
2021/12/04 01:04:47;;;;;;;2.15;1.95;;;15.80;43.50;;;;;;5148508;27;49243;-22
2021/12/04 01:07:14;;;;;;;2.03;1.70;;;15.90;43.60;;;;;;5148617;27;47204;-22
2021/12/04 01:09:41;;;;;;;2.10;1.90;;;15.80;43.60;;;;;;5148776;27;46878;-22
2021/12/04 01:12:10;;;;;;;1.90;1.80;;;15.80;43.60;;;;;;5148294;27;47624;-22
2021/12/04 01:14:36;;;;;;;2.53;1.98;;;15.80;43.70;;;;;;5148678;27;48961;-18
2021/12/04 01:17:03;;;;;;;2.05;1.85;;;15.80;43.70;;;;;;5148293;27;46890;-22
2021/12/04 01:19:30;;;;;;;2.15;1.88;;;15.80;43.70;;;;;;5148728;27;46920;-19
2021/12/04 01:21:57;;;;;;;2.90;1.60;;;15.80;43.70;;;;;;5148296;27;46849;-22
2021/12/04 01:24:24;;;;;;;1.60;1.50;;;15.70;43.70;;;;;;5148375;27;47941;-19
2021/12/04 01:26:51;;;;;;;2.40;1.90;;;15.70;43.70;;;;;;5147956;27;47256;-17
2021/12/04 01:29:19;;;;;;;1.95;1.80;;;15.70;43.70;;;;;;5148542;27;46796;-21
2021/12/04 01:31:46;;;;;;;2.40;1.80;;;15.70;43.80;;;;;;5148458;27;47161;-20
2021/12/04 01:34:12;;;;;;;1.98;1.88;;;15.70;43.80;;;;;;5147888;27;48700;-20
2021/12/04 01:36:39;;;;;;;1.90;1.80;;;15.70;43.80;;;;;;5148125;27;46998;-16
2021/12/04 01:39:06;;;;;;;2.33;1.40;;;15.70;43.90;;;;;;5148481;27;47035;-16
2021/12/04 01:41:33;;;;;;;1.75;1.65;;;15.70;43.90;;;;;;5148428;27;46823;-15
2021/12/04 01:44:00;;;;;;;1.60;1.40;;;15.60;43.90;;;;;;5148054;27;48246;-19
2021/12/04 01:46:29;;;;;;;1.80;1.52;;;15.60;43.90;;;;;;5147931;27;46808;-19
2021/12/04 01:48:55;;;;;;;1.35;1.27;;;15.60;44.00;;;;;;5147924;27;46972;-21
2021/12/04 01:51:22;;;;;;;1.45;1.35;;;15.60;44.00;;;;;;5147835;27;46845;-21
2021/12/04 01:53:49;;;;;;;1.65;1.50;;;15.60;44.00;;;;;;5147511;27;47862;-22
2021/12/04 01:56:15;;;;;;;1.48;1.38;;;15.60;44.10;;;;;;5147831;27;47409;-16
2021/12/04 01:58:43;;;;;;;1.70;1.48;;;15.60;44.00;;;;;;5148097;27;46816;-17
2021/12/04 02:01:10;;;;;;;1.60;1.30;;;15.60;44.10;;;;;;5148007;27;46864;-17
2021/12/04 02:03:38;;;;;;;1.90;1.40;;;15.60;44.10;;;;;;5147028;27;48092;-22
2021/12/04 02:06:04;;;;;;;2.25;1.50;;;15.60;44.10;;;;;;5147608;27;46977;-17
2021/12/04 02:08:31;;;;;;;1.60;1.45;;;15.60;44.10;;;;;;5148112;27;46894;-16
2021/12/04 02:10:59;;;;;;;1.55;1.40;;;15.60;44.20;;;;;;5147822;27;47245;-21
2021/12/04 02:13:26;;;;;;;1.42;1.33;;;15.60;44.20;;;;;;5147601;27;47810;-21
2021/12/04 02:15:53;;;;;;;1.58;1.48;;;15.60;44.20;;;;;;5147625;27;46953;-17
2021/12/04 02:18:20;;;;;;;1.33;1.23;;;15.50;44.20;;;;;;5147826;27;46842;-18
2021/12/04 02:20:48;;;;;;;1.20;1.10;;;15.50;44.20;;;;;;5147873;27;46879;-17
2021/12/04 02:23:15;;;;;;;1.55;1.45;;;15.50;44.30;;;;;;5147511;27;47921;-21
2021/12/04 02:25:42;;;;;;;1.35;1.20;;;15.50;44.40;;;;;;5147222;27;47203;-22
2021/12/04 02:28:10;;;;;;;1.60;1.50;;;15.50;44.50;;;;;;5147823;27;46757;-21
2021/12/04 02:30:38;;;;;;;1.45;1.25;;;15.50;44.50;;;;;;5147746;27;47150;-16
2021/12/04 02:33:11;;;;;;;1.13;1.13;;;15.50;44.50;;;;;;5147144;27;48765;-22
2021/12/04 02:35:38;;;;;;;1.30;1.20;;;15.50;44.60;;;;;;5147555;27;46798;-18
2021/12/04 02:38:06;;;;;;;1.10;1.10;;;15.50;44.50;;;;;;5147251;27;46894;-21
2021/12/04 02:40:33;;;;;;;1.23;1.13;;;15.50;44.50;;;;;;5147348;27;47185;-17
2021/12/04 02:43:00;;;;;;;1.45;1.10;;;15.50;45.00;;;;;;5147022;27;48051;-18
2021/12/04 02:45:26;;;;;;;1.15;1.05;;;15.50;44.50;;;;;;5147319;27;47248;-21
2021/12/04 02:47:53;;;;;;;1.00;1.00;;;15.50;44.50;;;;;;5147301;27;47182;-21
2021/12/04 02:50:20;;;;;;;1.45;1.27;;;15.50;44.60;;;;;;5147306;27;46929;-17
2021/12/04 02:52:46;;;;;;;1.10;1.00;;;15.50;44.60;;;;;;5146765;27;48700;-21
2021/12/04 02:55:16;;;;;;;1.15;1.00;;;15.50;44.60;;;;;;5146885;27;47173;-21
2021/12/04 02:57:44;;;;;;;1.17;1.10;;;15.50;44.60;;;;;;5147099;27;46929;-21
2021/12/04 03:00:14;;;;;;;1.27;1.17;;;15.50;45.30;;;;;;5147554;27;47055;-16
2021/12/04 03:02:40;;;;;;;1.00;1.00;;;15.50;44.70;;;;;;5146619;27;46923;-22
2021/12/04 03:05:09;;;;;;;1.25;1.15;;;15.50;44.70;;;;;;5146984;27;46860;-17
2021/12/04 03:07:36;;;;;;;0.90;0.90;;;15.50;44.80;;;;;;5146661;27;47063;-21
2021/12/04 03:10:03;;;;;;;0.85;0.85;;;15.50;44.80;;;;;;5147325;27;47259;-21
2021/12/04 03:12:31;;;;;;;1.00;1.00;;;15.50;44.80;;;;;;5146488;27;47800;-21
2021/12/04 03:14:58;;;;;;;0.90;0.90;;;15.50;44.90;;;;;;5148880;27;47145;-21
2021/12/04 03:17:26;;;;;;;1.17;1.00;;;15.40;44.90;;;;;;5150231;27;46832;-21
2021/12/04 03:19:53;;;;;;;1.05;1.00;;;15.40;44.90;;;;;;5150506;27;46878;-17
2021/12/04 03:22:21;;;;;;;1.20;1.10;;;15.40;44.90;;;;;;5149934;27;48391;-20
2021/12/04 03:24:48;;;;;;;0.90;0.90;;;15.40;45.00;;;;;;5150229;27;46786;-21
2021/12/04 03:27:16;;;;;;;0.98;0.93;;;15.40;45.00;;;;;;5150089;27;46860;-17
2021/12/04 03:29:48;;;;;;;0.98;0.98;;;15.40;45.10;;;;;;5150277;27;46902;-17
2021/12/04 03:43:19;;;;;;;0.80;0.80;;;15.40;45.30;;;;;;5147038;27;47981;-21
2021/12/04 03:45:53;;;;;;;1.08;0.90;;;15.40;45.30;;;;;;5149711;27;46809;-21
2021/12/04 03:48:49;;;;;;;0.80;0.80;;;15.40;45.40;;;;;;5149994;27;46894;-17
2021/12/04 03:51:15;;;;;;;0.70;0.70;;;15.40;45.30;;;;;;5149910;27;47154;-17
2021/12/04 03:53:42;;;;;;;1.17;0.70;;;15.40;45.40;;;;;;5150076;27;48852;-21
2021/12/04 03:56:10;;;;;;;0.85;0.85;;;15.40;45.40;;;;;;5149663;27;47137;-21
2021/12/04 03:58:37;;;;;;;0.82;0.82;;;15.40;45.40;;;;;;5150023;27;46862;-21
2021/12/04 04:01:05;;;;;;;0.80;0.80;;;15.40;45.40;;;;;;5150276;27;46912;-21
2021/12/04 04:03:32;;;;;;;0.77;0.77;;;15.40;45.40;;;;;;5149939;27;47828;-21
2021/12/04 04:05:59;;;;;;;0.77;0.77;;;15.40;45.60;;;;;;5149525;27;47157;-21
2021/12/04 04:08:25;;;;;;;0.60;0.60;;;15.40;45.50;;;;;;5149911;27;46886;-21
2021/12/04 04:10:54;;;;;;;1.45;0.90;;;15.40;45.50;;;;;;5149769;27;47154;-21
2021/12/04 04:13:21;;;;;;;0.70;0.70;;;15.40;45.60;;;;;;5149883;27;48232;-17
2021/12/04 04:15:49;;;;;;;0.90;0.90;;;15.40;45.60;;;;;;5149513;27;47037;-21
2021/12/04 04:18:17;;;;;;;0.77;0.70;;;15.40;45.50;;;;;;5149581;27;47040;-17
2021/12/04 04:20:43;;;;;;;0.80;0.80;;;15.40;45.50;;;;;;5149391;27;47111;-21
2021/12/04 04:23:10;;;;;;;0.70;0.70;;;15.40;45.70;;;;;;5149389;27;46762;-18
2021/12/04 04:25:37;;;;;;;0.70;0.70;;;15.40;45.60;;;;;;5148927;27;46868;-21
2021/12/04 04:28:04;;;;;;;0.73;0.73;;;15.40;46.30;;;;;;5149407;27;47116;-21
2021/12/04 04:30:31;;;;;;;0.80;0.80;;;15.40;45.70;;;;;;5149608;27;47310;-21
2021/12/04 04:33:00;;;;;;;0.60;0.60;;;15.40;45.80;;;;;;5148928;27;46922;-17
2021/12/04 04:35:28;;;;;;;0.80;0.80;;;15.40;45.80;;;;;;5148996;27;47482;-17
2021/12/04 04:38:02;;;;;;;0.90;0.90;;;15.40;45.80;;;;;;5148994;27;46894;-21
2021/12/04 04:59:53;;;;;;;0.65;0.65;;;15.40;46.20;;;;;;5146059;27;46943;-16
2021/12/04 05:13:17;;;;;;;0.52;0.52;;;15.40;46.40;;;;;;5145893;27;46883;-21
2021/12/04 05:15:55;;;;;;;0.50;0.50;;;15.40;46.40;;;;;;5148441;27;47884;-21
2021/12/04 05:18:33;;;;;;;0.60;0.60;;;15.40;46.50;;;;;;5148882;27;47140;-21
2021/12/04 05:21:04;;;;;;;0.60;0.60;;;15.40;46.50;;;;;;5148208;27;46817;-17
2021/12/04 05:23:33;;;;;;;0.82;0.77;;;15.40;46.40;;;;;;5148684;27;47040;-21
2021/12/04 05:25:59;;;;;;;0.70;0.70;;;15.40;46.40;;;;;;5148277;27;47890;-21
2021/12/04 05:28:27;;;;;;;0.40;0.40;;;15.40;46.40;;;;;;5148410;27;46791;-16
2021/12/04 05:30:53;;;;;;;0.85;0.65;;;15.40;47.00;;;;;;5148385;27;46800;-16
2021/12/04 05:33:20;;;;;;;0.50;0.50;;;15.40;46.40;;;;;;5148855;27;47070;-20
2021/12/04 05:35:48;;;;;;;0.60;0.60;;;15.40;46.40;;;;;;5148174;27;47100;-20
2021/12/04 05:38:15;;;;;;;0.50;0.50;;;15.40;46.40;;;;;;5147190;27;47410;-17
2021/12/04 05:40:43;;;;;;;0.60;0.60;;;15.40;46.40;;;;;;5148508;27;46815;-20
2021/12/04 05:43:09;;;;;;;0.55;0.55;;;15.40;46.50;;;;;;5148607;27;46837;-21
2021/12/04 05:45:39;;;;;;;0.43;0.43;;;15.40;46.50;;;;;;5147979;27;48149;-17
2021/12/04 05:48:11;;;;;;;0.57;0.57;;;15.40;46.60;;;;;;5148186;27;46778;-20
2021/12/04 05:53:21;;;;;;;0.40;0.40;;;15.40;46.60;;;;;;5145146;27;46800;-21
2021/12/04 05:55:53;;;;;;;0.40;0.40;;;15.40;46.70;;;;;;5147837;27;48810;-21
2021/12/04 05:58:21;;;;;;;0.50;0.50;;;15.40;46.70;;;;;;5147936;27;46942;-21
2021/12/04 06:00:48;;;;;;;0.50;0.50;;;15.40;46.80;;;;;;5148001;27;46836;-21
2021/12/04 06:03:15;;;;;;;0.60;0.60;;;15.40;46.80;;;;;;5148140;27;47346;-21
2021/12/04 06:05:41;;;;;;;0.40;0.40;;;15.40;46.80;;;;;;5147462;27;46995;-22
2021/12/04 06:08:08;;;;;;;0.40;0.40;;;15.40;46.90;;;;;;5147880;27;46817;-21
2021/12/04 06:10:35;;;;;;;0.50;0.50;;;15.40;46.90;;;;;;5147576;27;46880;-21
2021/12/04 06:13:03;;;;;;;0.40;0.40;;;15.40;47.50;;;;;;5147700;27;46808;-17
2021/12/04 06:15:30;;;;;;;0.52;0.43;;;15.40;46.80;;;;;;5147750;27;47817;-17
2021/12/04 06:17:56;;;;;;;0.50;0.50;;;15.40;47.00;;;;;;5147569;27;47391;-17
2021/12/04 06:23:07;;;;;;;0.40;0.40;;;15.40;47.00;;;;;;5145201;27;46739;-21
2021/12/04 06:25:34;;;;;;;0.45;0.45;;;15.40;47.00;;;;;;5147232;27;48465;-17
2021/12/04 06:28:02;;;;;;;0.40;0.40;;;15.40;46.90;;;;;;5147491;27;46863;-21
2021/12/04 06:30:33;;;;;;;0.50;0.50;;;15.50;47.00;;;;;;5147676;27;46911;-17
2021/12/04 06:33:00;;;;;;;0.30;0.30;;;15.50;47.00;;;;;;5147830;27;46839;-17
2021/12/04 06:35:27;;;;;;;0.30;0.30;;;15.40;47.00;;;;;;5147434;27;47063;-18
2021/12/04 06:37:53;;;;;;;0.40;0.40;;;15.50;47.20;;;;;;5147195;27;46965;-17
2021/12/04 06:40:25;;;;;;;1.08;0.40;;;15.50;47.20;;;;;;5147549;27;46804;-22
2021/12/04 06:42:51;;;;;;;0.40;0.40;;;15.50;47.20;;;;;;5147389;27;46923;-17
2021/12/04 06:45:19;;;;;;;0.20;0.20;;;15.50;47.20;;;;;;5147030;27;47844;-18
2021/12/04 06:47:51;;;;;;;0.50;0.50;;;15.40;47.30;;;;;;5147287;27;47182;-21
2021/12/04 06:50:24;;;;;;;0.30;0.30;;;15.50;47.30;;;;;;5151159;27;46870;-17
2021/12/04 06:52:50;;;;;;;0.40;0.40;;;15.50;47.50;;;;;;5150976;27;46887;-21
2021/12/04 06:55:19;;;;;;;0.30;0.30;;;15.50;47.30;;;;;;5150843;27;47661;-18
2021/12/04 06:57:46;;;;;;;0.30;0.30;;;15.50;47.40;;;;;;5150459;27;46786;-21
2021/12/04 07:00:13;;;;;;;0.45;0.43;;;15.50;47.60;;;;;;5150884;27;46870;-17
2021/12/04 07:02:41;;;;;;;0.38;0.38;;;15.50;47.60;;;;;;5150683;27;47060;-21
2021/12/04 07:05:09;;;;;;;0.20;0.20;;;15.50;47.70;;;;;;5150562;27;48057;-17
2021/12/04 07:07:35;;;;;;;0.30;0.30;;;15.50;47.70;;;;;;5150217;27;46962;-17
2021/12/04 07:10:02;;;;;;;0.50;0.50;;;15.50;47.70;;;;;;5150959;27;47017;-21
2021/12/04 07:12:29;;;;;;;0.17;0.17;;;15.50;47.80;;;;;;5150378;27;46824;-18
2021/12/04 07:14:55;;;;;;;0.30;0.30;;;15.50;47.80;;;;;;5150461;27;48029;-17
2021/12/04 07:17:22;;;;;;;0.30;0.30;;;15.50;47.80;;;;;;5150372;27;46988;-17
2021/12/04 07:19:50;;;;;;;0.35;0.35;;;15.50;47.80;;;;;;5150214;27;46894;-21
2021/12/04 07:22:17;;;;;;;0.20;0.20;;;15.50;47.90;;;;;;5150218;27;46885;-21
2021/12/04 07:24:43;;;;;;;0.30;0.30;;;15.50;48.50;;;;;;5150302;27;48998;-22
2021/12/04 07:27:10;;;;;;;0.20;0.20;;;15.50;48.00;;;;;;5149928;27;47122;-21
2021/12/04 07:29:37;;;;;;;0.20;0.20;;;15.50;47.90;;;;;;5150406;27;46963;-17
2021/12/04 07:32:04;;;;;;;1.00;0.50;;;15.50;47.90;;;;;;5150463;27;47052;-21
2021/12/04 07:34:31;;;;;;;0.20;0.20;;;15.50;47.90;;;;;;5150027;27;47833;-17
2021/12/04 07:37:00;;;;;;;0.20;0.20;;;15.60;48.00;;;;;;5150063;27;46916;-17
2021/12/04 07:39:26;;;;;;;0.30;0.30;;;15.50;47.90;;;;;;5150442;27;47063;-22
2021/12/04 07:41:53;;;;;;;0.20;0.20;;;15.50;47.90;;;;;;5150332;27;46956;-17
2021/12/04 07:44:20;;;;;;;0.17;0.17;;;15.60;48.00;;;;;;5149802;27;48048;-22
2021/12/04 07:46:47;;;;;;;0.30;0.30;;;15.60;48.10;;;;;;5149554;27;46834;-21
2021/12/04 07:49:13;;;;;;;0.10;0.10;;;15.60;48.10;;;;;;5150179;27;46847;-16
2021/12/04 07:51:40;;;;;;;0.28;0.28;;;15.60;48.00;;;;;;5149834;27;46991;-17
2021/12/04 07:54:09;;;;;;;0.15;0.15;;;15.60;48.00;;;;;;5150005;27;47268;-20
2021/12/04 07:56:36;;;;;;;0.43;0.10;;;15.60;48.10;;;;;;5149620;27;46906;-22
2021/12/04 07:59:03;;;;;;;0.25;0.25;;;15.60;48.10;;;;;;5149957;27;46817;-21
2021/12/04 08:01:29;;;;;;;0.20;0.20;;;15.60;48.10;;;;;;5148800;27;47179;-21
2021/12/04 08:03:56;;;;;;;0.10;0.10;;;15.60;48.20;;;;;;5149804;27;48084;-21
2021/12/04 08:06:23;;;;;;;0.20;0.20;;;15.60;48.30;;;;;;5149847;27;47249;-21
2021/12/04 08:08:52;;;;;;;0.20;0.20;;;15.60;48.10;;;;;;5149556;27;47002;-21
2021/12/04 08:11:20;;;;;;;0.30;0.30;;;15.60;48.30;;;;;;5149543;27;46971;-16
2021/12/04 08:13:47;;;;;;;0.38;0.20;;;15.60;48.10;;;;;;5149727;27;48221;-17
2021/12/04 08:16:14;;;;;;;0.20;0.20;;;15.60;48.20;;;;;;5149290;27;46871;-17
2021/12/04 08:18:41;;;;;;;0.30;0.30;;;15.60;48.20;;;;;;5149718;27;47153;-21
2021/12/04 08:21:08;;;;;;;0.30;0.30;;;15.70;48.30;;;;;;5149720;27;47254;-22
2021/12/04 08:23:34;;;;;;;0.10;0.10;;;15.70;48.30;;;;;;5149171;27;48229;-19
2021/12/04 08:26:01;;;;;;;0.30;0.20;;;15.70;48.30;;;;;;5148881;27;46877;-22
2021/12/04 08:28:29;;;;;;;0.22;0.22;;;15.70;48.30;;;;;;5149551;27;46900;-22
2021/12/04 08:30:56;;;;;;;0.08;0.08;;;15.70;48.20;;;;;;5149293;27;46913;-21
2021/12/04 08:33:23;;;;;;;0.28;0.20;;;15.70;48.30;;;;;;5149332;27;48064;-21
2021/12/04 08:35:49;;;;;;;0.15;0.15;;;15.70;48.20;;;;;;5152641;27;46914;-21
2021/12/04 08:38:17;;;;;;;0.10;0.10;;;15.70;48.30;;;;;;5161666;27;46832;-16
2021/12/04 08:40:44;;;;;;;0.20;0.20;;;15.70;48.40;;;;;;5149539;27;46942;-16
2021/12/04 08:43:11;;;;;;;0.20;0.20;;;15.70;48.30;;;;;;5148762;27;48843;-17
2021/12/04 08:45:40;;;;;;;0.17;0.17;;;15.70;48.30;;;;;;5148749;27;47009;-21
2021/12/04 08:48:07;;;;;;;0.20;0.20;;;15.70;48.40;;;;;;5148980;27;46873;-21
2021/12/04 08:50:34;;;;;;;0.10;0.10;;;15.70;48.40;;;;;;5149415;27;47249;-22
2021/12/04 08:53:01;;;;;;;0.10;0.10;;;15.70;48.40;;;;;;5148480;27;48742;-18
2021/12/04 08:55:28;;;;;;;0.15;0.15;;;15.70;48.30;;;;;;5148470;27;46874;-18
2021/12/04 08:57:55;;;;;;;0.10;0.10;;;15.70;48.40;;;;;;5148512;27;47228;-21
2021/12/04 09:00:24;;;;;;;0.20;0.20;;;15.70;48.50;;;;;;5149072;27;46957;-21
2021/12/04 09:02:53;;;;;;;0.10;0.10;;;15.80;48.50;;;;;;5148531;27;46828;-21
2021/12/04 09:05:20;;;;;;;0.10;0.10;;;15.80;48.80;;;;;;5148714;27;46819;-21
2021/12/04 09:07:47;;;;;;;0.20;0.20;;;15.70;48.80;;;;;;5148528;27;46910;-17
2021/12/04 09:10:13;;;;;;;0.20;0.20;;;15.80;48.60;;;;;;5149029;27;46935;-21
2021/12/04 09:12:40;;;;;;;0.30;0.10;;;15.80;48.60;;;;;;5148060;27;47861;-20
2021/12/04 09:15:08;;;;;;;0.08;0.08;;;15.90;48.30;;;;;;5148713;27;46985;-21
2021/12/04 09:17:35;;;;;;;0.20;0.20;;;16.10;48.30;;;;;;5148112;27;46948;-21
2021/12/04 09:20:04;;;;;;;0.20;0.17;;;16.30;48.00;;;;;;5148629;27;46922;-21
2021/12/04 09:22:34;;;;;;;0.20;0.20;;;16.50;47.80;;;;;;5148322;27;48818;-21
2021/12/04 09:25:01;;;;;;;0.00;0.00;;;16.70;47.40;;;;;;5148159;27;46835;-20
2021/12/04 09:27:45;;;;;;;0.15;0.10;;;16.80;47.20;;;;;;5148462;27;46882;-21
2021/12/04 09:30:41;;;;;;;0.10;0.10;;;16.90;47.00;;;;;;5148510;27;47075;-17
2021/12/04 10:01:10;;;;;;;0.15;0.15;;;17.70;45.70;;;;;;5119282;27;47106;-21
2021/12/04 10:12:14;;;;;;;1.23;0.28;;;18.00;46.60;;;;;;5153823;27;46780;-23
2021/12/04 10:15:09;;;;;;;6.93;0.65;;;18.20;46.70;;;;;;5165255;27;46862;-21
2021/12/04 10:17:52;;;;;;;8.95;0.85;;;18.40;46.70;;;;;;5156686;27;48778;-18
2021/12/04 10:20:31;;;;;;;2.75;0.40;;;18.60;46.50;;;;;;5151983;27;47346;-20
2021/12/04 10:23:13;;;;;;;3.85;0.68;;;18.70;46.30;;;;;;5151081;27;46883;-19
2021/12/04 10:34:06;;;;;;;2.40;0.35;;;18.90;45.00;;;;;;5151201;27;46993;-20
2021/12/04 10:36:34;;;;;;;0.55;0.50;;;19.00;45.30;;;;;;5164094;27;47323;-19
2021/12/04 10:39:01;;;;;;;2.75;0.35;;;19.10;45.30;;;;;;5151549;27;47947;-19
2021/12/04 10:41:33;;;;;;;2.65;0.22;;;19.20;45.30;;;;;;5158824;27;46980;-19
2021/12/04 10:44:13;;;;;;;0.70;0.28;;;19.30;45.00;;;;;;5160428;27;46858;-19
2021/12/04 10:46:40;;;;;;;0.85;0.28;;;19.30;44.40;;;;;;5150612;27;47198;-18
2021/12/04 10:49:13;;;;;;;4.22;0.45;;;19.40;45.20;;;;;;5161817;27;47963;-19
2021/12/04 10:51:47;;;;;;;2.65;0.52;;;19.50;44.50;;;;;;5157173;27;47360;-20
2021/12/04 10:54:23;;;;;;;7.43;0.70;;;19.60;44.80;;;;;;5152755;27;47065;-20
2021/12/04 10:57:14;;;;;;;0.40;0.40;;;19.70;44.70;;;;;;5163568;27;46965;-20
2021/12/04 10:59:47;;;;;;;4.88;0.63;;;19.70;44.80;;;;;;5157202;27;49236;-20
2021/12/04 11:02:21;;;;;;;8.77;0.90;;;19.80;44.40;;;;;;5152347;27;46974;-19
2021/12/04 11:04:50;;;;;;;2.55;0.22;;;19.90;44.10;;;;;;5163841;27;46905;-20
2021/12/04 11:07:37;;;;;;;1.08;0.30;;;20.00;43.80;;;;;;5151706;27;46838;-21
2021/12/04 11:18:56;;;;;;;6.20;0.60;;;20.20;44.60;;;;;;5147498;27;46956;-21
2021/12/04 11:38:21;;;;;;;3.47;1.10;;;21.00;42.90;;;;;;5154185;27;47388;-19
2021/12/04 11:43:48;;;;;;;1.38;1.25;;;21.10;42.70;;;;;;5155271;27;48793;-20
2021/12/04 11:46:22;;;;;;;2.03;1.10;;;21.10;42.70;;;;;;5166418;27;46950;-20
2021/12/04 11:48:48;;;;;;;3.92;1.20;;;21.20;42.60;;;;;;5155389;27;46849;-20
2021/12/04 11:51:17;;;;;;;11.63;1.73;;;21.30;42.10;;;;;;5161333;27;47019;-20
2021/12/04 11:53:44;;;;;;;5.53;1.80;;;21.30;42.00;;;;;;5158436;27;47138;-20
2021/12/04 11:56:16;;;;;;;2.78;1.60;;;21.20;42.10;;;;;;5156728;27;47244;-20
2021/12/04 11:58:43;;;;;;;4.50;1.60;;;21.10;42.20;;;;;;5158880;27;46949;-19
2021/12/04 12:01:22;;;;;;;2.03;1.70;;;21.10;42.70;;;;;;5153969;27;47298;-20
2021/12/04 12:03:51;;;;;;;3.67;1.70;;;21.10;42.60;;;;;;5166556;27;47858;-20
2021/12/04 12:06:18;;;;;;;1.60;1.50;;;21.10;42.50;;;;;;5154837;27;47068;-20
2021/12/04 12:08:45;;;;;;;2.38;1.77;;;21.20;42.50;;;;;;5160719;27;46860;-20
2021/12/04 12:11:13;;;;;;;2.80;1.63;;;21.20;42.40;;;;;;5155425;27;47039;-20
2021/12/04 12:13:42;;;;;;;1.90;1.60;;;21.30;43.00;;;;;;5166998;27;48492;-20
2021/12/04 12:16:10;;;;;;;2.17;1.75;;;21.30;42.30;;;;;;5154314;27;47138;-20
2021/12/04 12:18:51;;;;;;;4.65;1.70;;;21.30;42.30;;;;;;5154449;27;47035;-20
2021/12/04 12:21:21;;;;;;;2.42;1.55;;;21.40;42.20;;;;;;5159224;27;46921;-21
2021/12/04 12:26:48;;;;;;;1.33;1.23;;;21.40;42.10;;;;;;5145877;27;46908;-20
2021/12/04 12:32:46;;;;;;;1.65;1.30;;;21.50;42.10;;;;;;5156410;27;46985;-20
2021/12/04 12:38:07;;;;;;;1.70;1.20;;;21.50;42.10;;;;;;5149612;27;46918;-20
2021/12/04 12:40:33;;;;;;;4.72;1.55;;;21.50;42.00;;;;;;5168848;27;47003;-20
2021/12/04 12:43:13;;;;;;;2.15;1.48;;;21.50;42.10;;;;;;5157866;27;47444;-21
2021/12/04 12:45:39;;;;;;;1.20;1.10;;;21.50;42.00;;;;;;5150786;27;48103;-20
2021/12/04 12:48:07;;;;;;;1.42;1.30;;;21.60;42.10;;;;;;5154821;27;47071;-20
2021/12/04 12:50:37;;;;;;;4.32;1.50;;;21.60;42.10;;;;;;5160193;27;46853;-20
2021/12/04 12:53:07;;;;;;;2.45;1.50;;;21.60;42.90;;;;;;5148809;27;46869;-20
2021/12/04 12:55:35;;;;;;;6.80;2.00;;;21.60;43.70;;;;;;5154780;27;47280;-20
2021/12/04 12:58:17;;;;;;;9.80;2.40;;;21.70;43.60;;;;;;5149093;27;47176;-20
2021/12/04 13:11:45;;;;;;;3.97;2.10;;;21.20;42.50;;;;;;5154323;27;47138;-21
2021/12/04 13:14:13;;;;;;;4.00;2.38;;;21.10;42.60;;;;;;5152615;27;47035;-21
2021/12/04 13:16:42;;;;;;;8.63;2.38;;;21.10;42.90;;;;;;5152128;27;48024;-21
2021/12/04 13:19:11;;;;;;;4.20;2.63;;;21.10;43.40;;;;;;5164675;27;47168;-21
2021/12/04 13:21:40;;;;;;;5.53;2.45;;;21.10;43.00;;;;;;5157680;27;46824;-21
2021/12/04 13:24:10;;;;;;;7.57;2.90;;;21.10;42.90;;;;;;5160545;27;47028;-21
2021/12/04 13:26:37;;;;;;;4.85;1.95;;;21.20;42.90;;;;;;5167206;27;46953;-21
2021/12/04 13:29:05;;;;;;;3.60;2.30;;;21.10;42.70;;;;;;5155874;27;47016;-21
2021/12/04 13:31:37;;;;;;;6.72;1.98;;;21.10;42.70;;;;;;5159721;27;47041;-21
2021/12/04 13:34:03;;;;;;;3.35;1.98;;;21.00;43.00;;;;;;5152452;27;47030;-21
2021/12/04 13:36:31;;;;;;;4.32;2.10;;;21.10;43.00;;;;;;5149916;27;48836;-21
2021/12/04 13:38:59;;;;;;;3.38;1.92;;;21.20;42.90;;;;;;5154639;27;47151;-21
2021/12/04 13:41:27;;;;;;;5.43;2.30;;;21.20;42.80;;;;;;5166988;27;46903;-21
2021/12/04 13:43:55;;;;;;;3.03;2.33;;;21.30;42.70;;;;;;5167019;27;46852;-21
2021/12/04 13:46:23;;;;;;;4.43;2.20;;;21.30;42.70;;;;;;5166411;27;48014;-21
2021/12/04 13:48:50;;;;;;;6.07;2.55;;;21.30;42.60;;;;;;5168779;27;46820;-21
2021/12/04 13:51:16;;;;;;;8.43;2.42;;;21.30;42.50;;;;;;5166605;27;46915;-20
2021/12/04 13:53:44;;;;;;;6.55;2.30;;;21.40;42.50;;;;;;5169041;27;46863;-21
2021/12/04 13:56:13;;;;;;;5.28;2.22;;;21.40;42.40;;;;;;5166657;27;48231;-21
2021/12/04 13:58:44;;;;;;;14.15;2.58;;;21.40;42.40;;;;;;5160995;27;47142;-20
2021/12/04 14:01:11;;;;;;;8.20;2.00;;;21.40;42.40;;;;;;5148843;27;46950;-21
2021/12/04 14:03:38;;;;;;;4.40;1.90;;;21.40;42.30;;;;;;5147669;27;47101;-21
2021/12/04 14:06:10;;;;;;;3.05;1.80;;;21.50;42.40;;;;;;5149014;27;48563;-21
2021/12/04 14:08:37;;;;;;;3.30;1.80;;;21.50;42.30;;;;;;5168915;27;47715;-20
2021/12/04 14:11:03;;;;;;;6.03;2.00;;;21.50;42.30;;;;;;5167094;27;47271;-21
2021/12/04 14:13:31;;;;;;;5.82;2.10;;;21.50;42.20;;;;;;5147939;27;46878;-21
2021/12/04 14:15:58;;;;;;;4.18;1.60;;;21.50;42.20;;;;;;5156654;27;47045;-20
2021/12/04 14:18:26;;;;;;;5.28;1.80;;;21.50;42.20;;;;;;5163677;27;46982;-20
2021/12/04 14:20:54;;;;;;;4.55;1.60;;;21.50;42.20;;;;;;5155702;27;46821;-20
2021/12/04 14:23:21;;;;;;;4.53;1.80;;;21.50;42.20;;;;;;5153164;27;47146;-20
2021/12/04 14:25:53;;;;;;;5.18;1.73;;;21.50;42.20;;;;;;5166833;27;46937;-20
2021/12/04 14:28:20;;;;;;;3.67;1.77;;;21.50;42.20;;;;;;5165772;27;46930;-20
2021/12/04 14:30:49;;;;;;;5.50;1.80;;;21.50;42.20;;;;;;5151245;27;46823;-20
2021/12/04 14:33:18;;;;;;;4.50;1.88;;;21.50;42.20;;;;;;5152093;27;47088;-20
2021/12/04 14:35:46;;;;;;;3.53;1.60;;;21.50;42.20;;;;;;5166545;27;48795;-21
2021/12/04 14:38:15;;;;;;;4.40;1.42;;;21.50;42.20;;;;;;5147002;27;46922;-20
2021/12/04 14:40:42;;;;;;;3.45;1.50;;;21.50;42.20;;;;;;5148021;27;46847;-20
2021/12/04 14:43:10;;;;;;;2.42;1.40;;;21.50;42.10;;;;;;5150220;27;46871;-21
2021/12/04 14:45:37;;;;;;;1.90;1.40;;;21.50;42.20;;;;;;5157410;27;46766;-20
2021/12/04 14:48:07;;;;;;;3.65;1.60;;;21.50;42.20;;;;;;5147228;27;46891;-21
2021/12/04 14:50:35;;;;;;;3.97;1.58;;;21.50;42.10;;;;;;5151744;27;46969;-20
2021/12/04 14:53:02;;;;;;;1.83;1.55;;;21.50;42.10;;;;;;5151015;27;47171;-19
2021/12/04 14:55:32;;;;;;;5.22;1.63;;;21.60;42.20;;;;;;5161907;27;46958;-21
2021/12/04 14:57:58;;;;;;;2.55;1.60;;;21.60;42.20;;;;;;5159132;27;47400;-20
2021/12/04 15:00:27;;;;;;;3.47;1.45;;;21.60;42.20;;;;;;5160903;27;47056;-20
2021/12/04 15:02:55;;;;;;;2.30;1.52;;;21.60;42.20;;;;;;5166007;27;46751;-20
2021/12/04 15:05:27;;;;;;;2.38;1.25;;;21.60;42.20;;;;;;5167835;27;47029;-20
2021/12/04 15:08:02;;;;;;;2.10;1.30;;;21.60;42.20;;;;;;5161060;27;47036;-20
2021/12/04 15:10:29;;;;;;;3.78;1.95;;;21.60;42.20;;;;;;5157295;27;47104;-20
2021/12/04 15:12:58;;;;;;;3.85;1.90;;;21.60;42.10;;;;;;5167486;27;46907;-20
2021/12/04 15:15:27;;;;;;;6.95;1.30;;;21.60;42.10;;;;;;5156293;27;48771;-20
2021/12/04 15:17:54;;;;;;;1.40;1.30;;;21.60;42.10;;;;;;5151136;27;46845;-20
2021/12/04 15:20:28;;;;;;;1.30;1.10;;;21.60;42.10;;;;;;5150462;27;46834;-21
2021/12/04 15:22:58;;;;;;;2.45;1.50;;;21.60;42.10;;;;;;5165520;27;47085;-20
2021/12/04 15:25:29;;;;;;;2.60;1.48;;;21.60;42.10;;;;;;5169362;27;47076;-20
2021/12/04 15:27:56;;;;;;;1.98;1.20;;;21.60;42.10;;;;;;5152078;27;47033;-21